YBCG/OOL METAR and TAF weather

Enter ICAO airport designator
Station Type Date Time Source
YBCG METAR 2020/11/25 22:30 UTC NOAA

YBCG 252230Z AUTO 05006KT 9999 // SCT033 25/15 Q1014 RF00.0/000.0


Station Type Date Time Source
YBCG Decoded METAR 2020/11/25 22:30 UTC NOAA

Coolangatta Airport Aws, Australia (YBCG) 28-10S 153-30E 6M
Nov 25, 2020 - 05:30 PM EST / 2020.11.25 2230 UTC
Wind: from the NE (050 degrees) at 7 MPH (6 KT):0
Visibility: greater than 7 mile(s):0
Sky conditions: partly cloudy
Temperature: 77 F (25 C)
Dew Point: 59 F (15 C)
Relative Humidity: 53%
Pressure (altimeter): 29.94 in. Hg (1014 hPa)
ob: YBCG 252230Z AUTO 05006KT 9999 // SCT033 25/15 Q1014 RF00.0/000.0
cycle: 22

Station Type Date Time Source
YBCG TAF 2020/11/25 21:15 UTC NOAA

TAF
AMD TAF YBCG 252012Z 2521/2618 21005KT 9999 FEW025
FM252300 04010KT 9999 FEW030
FM261400 24005KT 9999 SCT025

Example: see airport list